Krabi, Thaïlande

21:50 ICT le 23 mai 2015 (GMT +0700)
Ao Nang, Krabi | | Change Station
CLOSE
Current Station
Stations météorologiques personnelles
Location: Ao Nang, Krabi
Altitude: 177 ft
Stations météo à proximité

Alt. 177 ft 8.05 °N, 98.84 °E | Updated 8 seconds ago

Mostly Cloudy
Nuageux
82.0 ° F
Paraît 89 ° F
N
0.0
Vent Variable Vent de SSO
Gusts 0.0 mph

Aujourd'hui
Haut(e) -- | Bas -- ° F
--% Risque de précip.
Hier
Haut(e) -- | Bas -- ° F
Precip. -- pouce
6:04 AM 6:36 PM
Lune montante, 30% visible
Pression 29.86 pouce
Visibilité 6.2 Miles terrestres
Nuages Peu 2200 ft
Nuageux 30000 ft
indice de chaleur 89 ° F
Point de rosée 75 ° F
Humidité 79%
Précipitations 0.07 pouce
Profondeur de la couche neigeuse Non disponible.
UV 0.0 sur 12
Pollen Non disponible.
Qualité de l'air Non disponible.
Flu Activity Non disponible.
METAR VTSP 231430Z 00000KT 9999 FEW022 BKN300 27/24 Q1011 A2986 NOSIG

More Conditions Fewer Conditions

Pression 29.86 pouce
Visibilité 6.2 Miles terrestres
Nuages Peu 2200 ft
Nuageux 30000 ft
indice de chaleur 89 ° F
Point de rosée 75 ° F
Humidité 79%
Précipitations 0.07 pouce
Profondeur de la couche neigeuse Non disponible.
UV 0.0 sur 12
Pollen Non disponible.
Qualité de l'air Non disponible.
Flu Activity Non disponible.
METAR VTSP 231430Z 00000KT 9999 FEW022 BKN300 27/24 Q1011 A2986 NOSIG

More Conditions Fewer Conditions

10-Day Weather Forecast

Almanac

Astronomie

May. 23, 2015 Lever Coucher
Temps réel
Crépuscule civil
Crépuscule nautique
Crépuscule astronomique
Lune
Durée de lumière visible
Longueur du jour
Tomorrow will be .
, % of the Moon is Illuminated

Extrêmes aujourd'hui

Country Highs Country Lows

Community

WunderPhotos

Upload Photos

1,823,480 Photos téléchargées !

WunderBlogs® & News

Nearby

Qualité de l'air

  Qualité de l'air Indice de la qualité de l'air Polluant
Not available.

Épaisseur de neige

Station Depth Altitude

Activité sismique

Ville Distance Mag. Time & Date
Minimum magnitude displayed is 2.5.

Températures des eaux côtières

Lieu Température

Stations

Stations météo à proximité

Emplacement de la station Température Refroidissement éolien Point de rosée Humidité Vent Precip. Alt. Mise à jour Type